Time;durP1;ratioP1;P1;durP2;ratioP2;P2;SDS_P1;SDS_P2;PMS_P1;PMS_P2;Temp;Humidity;BMP_temperature;BMP_pressure;BME280_temperature;BME280_humidity;BME280_pressure;Samples;Min_cycle;Max_cycle;Signal;HPM_P1;HPM_P2
2022/11/18 00:00:45;;;;;;;;;;;11.10;72.30;;;;;;5045396;28;88086;-39
2022/11/18 00:03:11;;;;;;;;;;;11.00;72.30;;;;;;5042358;28;88066;-39
2022/11/18 00:05:36;;;;;;;;;;;11.00;72.30;;;;;;5042993;28;88396;-39
2022/11/18 00:08:02;;;;;;;;;;;11.00;72.30;;;;;;5042632;28;88127;-39
2022/11/18 00:10:28;;;;;;;;;;;11.00;72.30;;;;;;5042880;28;87065;-39
2022/11/18 00:15:37;;;;;;;;;;;11.00;72.40;;;;;;5042618;28;87160;-39
2022/11/18 00:18:03;;;;;;;;;;;11.00;72.40;;;;;;5042860;28;87135;-39
2022/11/18 00:20:28;;;;;;;;;;;11.00;72.40;;;;;;5043204;28;87574;-39
2022/11/18 00:22:54;;;;;;;;;;;11.00;72.40;;;;;;5045356;28;88021;-39
2022/11/18 00:25:19;;;;;;;;;;;11.00;72.30;;;;;;5042316;27;89039;-39
2022/11/18 00:27:45;;;;;;;;;;;11.00;72.40;;;;;;5041485;28;89251;-39
2022/11/18 00:30:10;;;;;;;;;;;11.00;72.40;;;;;;5042701;28;88134;-39
2022/11/18 00:32:36;;;;;;;;;;;10.90;72.40;;;;;;5042702;27;87334;-39
2022/11/18 00:35:01;;;;;;;;;;;11.00;72.40;;;;;;5042393;28;88124;-39
2022/11/18 00:37:27;;;;;;;;;;;11.00;72.30;;;;;;5042516;28;87032;-39
2022/11/18 00:39:52;;;;;;;;;;;11.00;72.30;;;;;;5042294;27;88766;-39
2022/11/18 00:45:02;;;;;;;;;;;10.90;72.30;;;;;;5047897;28;86796;-39
2022/11/18 00:47:27;;;;;;;;;;;11.00;72.40;;;;;;5045733;28;87942;-39
2022/11/18 00:49:53;;;;;;;;;;;11.00;72.30;;;;;;5046044;28;87118;-39
2022/11/18 00:52:18;;;;;;;;;;;11.00;72.40;;;;;;5045413;28;87992;-40
2022/11/18 00:54:44;;;;;;;;;;;10.90;72.40;;;;;;5045527;28;88502;-39
2022/11/18 00:57:09;;;;;;;;;;;10.90;72.30;;;;;;5045904;28;87162;-39
2022/11/18 00:59:35;;;;;;;;;;;10.90;72.40;;;;;;5046031;28;87356;-39
2022/11/18 01:02:00;;;;;;;;;;;10.90;72.50;;;;;;5045506;28;87763;-40
2022/11/18 01:04:26;;;;;;;;;;;10.90;72.40;;;;;;5045833;28;87110;-39
2022/11/18 01:06:51;;;;;;;;;;;10.90;72.50;;;;;;5048414;28;87254;-39
2022/11/18 01:09:17;;;;;;;;;;;10.90;72.40;;;;;;5046287;28;86394;-39
2022/11/18 01:14:26;;;;;;;;;;;10.90;72.40;;;;;;5045623;28;86917;-39
2022/11/18 01:16:53;;;;;;;;;;;10.90;72.40;;;;;;5045036;28;88054;-39
2022/11/18 01:19:18;;;;;;;;;;;10.80;72.40;;;;;;5045557;27;87547;-39
2022/11/18 01:21:44;;;;;;;;;;;10.90;72.40;;;;;;5045619;28;87956;-39
2022/11/18 01:24:09;;;;;;;;;;;10.80;72.40;;;;;;5045207;28;87136;-39
2022/11/18 01:26:35;;;;;;;;;;;10.90;72.40;;;;;;5048083;28;86959;-39
2022/11/18 01:29:00;;;;;;;;;;;10.80;72.40;;;;;;5045500;28;87029;-39
2022/11/18 01:31:26;;;;;;;;;;;10.80;72.40;;;;;;5045483;28;87041;-39
2022/11/18 01:33:51;;;;;;;;;;;10.90;72.40;;;;;;5045270;28;88613;-39
2022/11/18 01:36:18;;;;;;;;;;;10.80;72.20;;;;;;5045378;28;87034;-39
2022/11/18 01:38:43;;;;;;;;;;;10.80;72.20;;;;;;5045135;27;89121;-39
2022/11/18 01:41:09;;;;;;;;;;;10.80;72.30;;;;;;5043863;28;88825;-39
2022/11/18 01:44:07;;;;;;;;;;;10.80;72.40;;;;;;5045375;28;87108;-39
2022/11/18 01:46:33;;;;;;;;;;;10.80;72.40;;;;;;5021491;27;87589;-39
2022/11/18 01:49:00;;;;;;;;;;;10.80;72.40;;;;;;5047479;28;89304;-39
2022/11/18 01:51:28;;;;;;;;;;;10.80;72.40;;;;;;5044886;28;87522;-39
2022/11/18 01:53:59;;;;;;;;;;;10.70;72.30;;;;;;5044421;27;88170;-39
2022/11/18 01:56:27;;;;;;;;;;;10.80;72.40;;;;;;5044706;27;87094;-39
2022/11/18 01:58:52;;;;;;;;;;;10.70;72.30;;;;;;5045363;27;87390;-39
2022/11/18 02:01:18;;;;;;;;;;;10.70;72.30;;;;;;5044761;28;87976;-39
2022/11/18 02:03:44;;;;;;;;;;;10.70;72.40;;;;;;5044909;28;87100;-39
2022/11/18 02:06:10;;;;;;;;;;;10.70;72.30;;;;;;5044087;28;87999;-39
2022/11/18 02:08:36;;;;;;;;;;;10.70;72.20;;;;;;5044601;28;87327;-39
2022/11/18 02:11:08;;;;;;;;;;;10.70;72.10;;;;;;5047510;28;87152;-40
2022/11/18 02:13:34;;;;;;;;;;;10.70;72.10;;;;;;5044431;28;88382;-39
2022/11/18 02:16:16;;;;;;;;;;;10.70;72.20;;;;;;5044640;28;87244;-39
2022/11/18 02:18:44;;;;;;;;;;;10.70;72.30;;;;;;5044179;27;88892;-39
2022/11/18 02:21:18;;;;;;;;;;;10.70;72.40;;;;;;5044394;28;88075;-39
2022/11/18 02:24:06;;;;;;;;;;;10.70;72.40;;;;;;5045072;28;86242;-39
2022/11/18 02:26:35;;;;;;;;;;;10.70;72.30;;;;;;5044575;27;87007;-39
2022/11/18 02:29:00;;;;;;;;;;;10.70;72.30;;;;;;5044091;28;88282;-39
2022/11/18 02:31:25;;;;;;;;;;;10.70;72.20;;;;;;5043544;28;87877;-39
2022/11/18 02:33:57;;;;;;;;;;;10.60;72.20;;;;;;5046958;27;88318;-39
2022/11/18 02:36:41;;;;;;;;;;;10.70;72.30;;;;;;5044465;28;87126;-39
2022/11/18 02:39:08;;;;;;;;;;;10.60;72.30;;;;;;5044178;27;87744;-39
2022/11/18 02:41:35;;;;;;;;;;;10.60;72.30;;;;;;5043606;28;88086;-39
2022/11/18 02:44:06;;;;;;;;;;;10.60;72.40;;;;;;5043683;28;87003;-39
2022/11/18 02:46:33;;;;;;;;;;;10.50;72.50;;;;;;5044519;27;87451;-39
2022/11/18 02:49:01;;;;;;;;;;;10.50;72.50;;;;;;5044494;28;86906;-39
2022/11/18 02:51:27;;;;;;;;;;;10.60;72.50;;;;;;5044121;28;87236;-40
2022/11/18 02:53:55;;;;;;;;;;;10.50;72.50;;;;;;5044031;28;87373;-39
2022/11/18 02:56:21;;;;;;;;;;;10.50;72.50;;;;;;5045807;28;90193;-39
2022/11/18 02:58:47;;;;;;;;;;;10.50;72.40;;;;;;5044172;28;88380;-39
2022/11/18 03:01:15;;;;;;;;;;;10.50;72.50;;;;;;5043657;28;88002;-39
2022/11/18 03:03:41;;;;;;;;;;;10.50;72.50;;;;;;5044022;28;86980;-39
2022/11/18 03:06:10;;;;;;;;;;;10.50;72.70;;;;;;5043857;27;88122;-39
2022/11/18 03:08:38;;;;;;;;;;;10.40;72.70;;;;;;5042715;28;88236;-39
2022/11/18 03:11:18;;;;;;;;;;;10.40;72.70;;;;;;5043619;28;87040;-39
2022/11/18 03:14:02;;;;;;;;;;;10.50;72.60;;;;;;5044260;27;87356;-39
2022/11/18 03:16:32;;;;;;;;;;;10.50;72.50;;;;;;5043081;27;89186;-39
2022/11/18 03:19:19;;;;;;;;;;;10.40;72.60;;;;;;5046353;28;87126;-39
2022/11/18 03:21:51;;;;;;;;;;;10.40;72.60;;;;;;5042825;28;88971;-39
2022/11/18 03:24:21;;;;;;;;;;;10.40;72.60;;;;;;5043377;28;86986;-39
2022/11/18 03:26:53;;;;;;;;;;;10.40;72.80;;;;;;5043777;27;87055;-39
2022/11/18 03:29:18;;;;;;;;;;;10.30;72.80;;;;;;5043564;28;88367;-39
2022/11/18 03:31:49;;;;;;;;;;;10.30;72.70;;;;;;5043128;28;87009;-39
2022/11/18 03:34:18;;;;;;;;;;;10.30;72.70;;;;;;5043736;28;87479;-39
2022/11/18 03:36:46;;;;;;;;;;;10.30;72.60;;;;;;5043054;28;89605;-39
2022/11/18 03:39:12;;;;;;;;;;;10.30;72.80;;;;;;5046852;28;86428;-39
2022/11/18 03:41:42;;;;;;;;;;;10.30;72.60;;;;;;5043050;28;88138;-39
2022/11/18 03:44:12;;;;;;;;;;;10.30;72.60;;;;;;5043050;28;87203;-39
2022/11/18 03:46:40;;;;;;;;;;;10.30;72.80;;;;;;5042809;27;87954;-39
2022/11/18 03:49:09;;;;;;;;;;;10.30;72.80;;;;;;5042703;28;89187;-39
2022/11/18 03:51:37;;;;;;;;;;;10.30;72.70;;;;;;5043374;28;86954;-39
2022/11/18 03:54:08;;;;;;;;;;;10.30;72.60;;;;;;5043016;27;87321;-39
2022/11/18 03:56:40;;;;;;;;;;;10.20;72.70;;;;;;5042912;28;87254;-39
2022/11/18 03:59:17;;;;;;;;;;;10.30;72.60;;;;;;5043011;28;87126;-39
2022/11/18 04:02:05;;;;;;;;;;;10.30;72.40;;;;;;5045784;27;87443;-39
2022/11/18 04:04:31;;;;;;;;;;;10.20;72.60;;;;;;5043678;28;86140;-39
2022/11/18 04:07:03;;;;;;;;;;;10.30;72.50;;;;;;5042916;28;87018;-39
2022/11/18 04:09:29;;;;;;;;;;;10.20;72.40;;;;;;5042123;28;89172;-39
2022/11/18 04:12:04;;;;;;;;;;;10.20;72.60;;;;;;5042451;28;88039;-39
2022/11/18 04:14:36;;;;;;;;;;;10.20;72.40;;;;;;5043063;27;88100;-39
2022/11/18 04:17:08;;;;;;;;;;;10.20;72.30;;;;;;5042232;28;88098;-39
2022/11/18 04:19:33;;;;;;;;;;;10.20;72.20;;;;;;5041465;28;87137;-39
2022/11/18 04:21:58;;;;;;;;;;;10.20;72.20;;;;;;5042409;28;87300;-40
2022/11/18 04:24:24;;;;;;;;;;;10.20;72.50;;;;;;5045176;28;88185;-39
2022/11/18 04:26:49;;;;;;;;;;;10.20;72.60;;;;;;5042826;28;88276;-39
2022/11/18 04:29:15;;;;;;;;;;;10.20;72.30;;;;;;5043016;28;87357;-39
2022/11/18 04:31:40;;;;;;;;;;;10.10;72.40;;;;;;5042900;28;87201;-39
2022/11/18 04:34:06;;;;;;;;;;;10.20;72.30;;;;;;5042667;27;87445;-39
2022/11/18 04:36:31;;;;;;;;;;;10.20;72.10;;;;;;5041445;28;88984;-39
2022/11/18 04:38:57;;;;;;;;;;;10.20;72.10;;;;;;5042626;28;87135;-39
2022/11/18 04:41:54;;;;;;;;;;;10.20;72.10;;;;;;5042804;28;87467;-39
2022/11/18 04:44:11;;;;;;;;;;;10.20;72.10;;;;;;5041087;28;89121;-39
2022/11/18 04:46:38;;;;;;;;;;;10.10;72.20;;;;;;5043960;28;87033;-39
2022/11/18 04:49:04;;;;;;;;;;;10.10;72.10;;;;;;5041999;28;87138;-40
2022/11/18 04:51:29;;;;;;;;;;;10.20;72.20;;;;;;5042437;28;87217;-39
2022/11/18 04:53:55;;;;;;;;;;;10.10;72.00;;;;;;5042748;27;87184;-39
2022/11/18 04:56:20;;;;;;;;;;;10.10;72.30;;;;;;5042062;28;88382;-39
2022/11/18 04:58:46;;;;;;;;;;;10.10;72.30;;;;;;5042322;28;86787;-39
2022/11/18 05:01:11;;;;;;;;;;;10.10;72.20;;;;;;5041804;28;87931;-39
2022/11/18 05:03:37;;;;;;;;;;;10.10;72.10;;;;;;5041875;28;88480;-39
2022/11/18 05:06:02;;;;;;;;;;;10.10;72.10;;;;;;5042003;28;87029;-39
2022/11/18 05:08:28;;;;;;;;;;;10.10;72.00;;;;;;5045004;28;86986;-39
2022/11/18 05:12:47;;;;;;;;;;;10.10;72.00;;;;;;5042166;28;87252;-39
2022/11/18 05:13:38;;;;;;;;;;;10.10;72.10;;;;;;5041951;28;87502;-39
2022/11/18 05:16:04;;;;;;;;;;;10.10;72.00;;;;;;5041853;28;88161;-39
2022/11/18 05:18:30;;;;;;;;;;;10.10;71.90;;;;;;5042443;28;87054;-39
2022/11/18 05:20:55;;;;;;;;;;;10.10;71.90;;;;;;5042221;28;87157;-39
2022/11/18 05:23:20;;;;;;;;;;;10.10;71.90;;;;;;5041801;28;87028;-39
2022/11/18 05:25:46;;;;;;;;;;;10.10;72.00;;;;;;5041296;28;88087;-39
2022/11/18 05:28:11;;;;;;;;;;;10.10;71.90;;;;;;5044412;28;88638;-39
2022/11/18 05:30:37;;;;;;;;;;;10.10;71.90;;;;;;5043364;27;87122;-39
2022/11/18 05:33:02;;;;;;;;;;;10.10;71.80;;;;;;5045114;28;87373;-39
2022/11/18 05:35:28;;;;;;;;;;;10.00;71.90;;;;;;5045165;28;88222;-39
2022/11/18 05:37:53;;;;;;;;;;;10.00;71.90;;;;;;5045444;28;87118;-39
2022/11/18 05:40:19;;;;;;;;;;;10.00;71.90;;;;;;5045438;27;87259;-39
2022/11/18 05:45:49;;;;;;;;;;;10.00;72.00;;;;;;5042332;28;89541;-39
2022/11/18 05:48:14;;;;;;;;;;;10.00;71.90;;;;;;5042919;28;87667;-39
2022/11/18 05:50:40;;;;;;;;;;;10.00;71.90;;;;;;5045417;28;88747;-39
2022/11/18 05:53:05;;;;;;;;;;;9.90;71.90;;;;;;5044726;27;89543;-39
2022/11/18 05:55:37;;;;;;;;;;;9.90;72.10;;;;;;5044968;28;88101;-39
2022/11/18 05:58:02;;;;;;;;;;;9.90;72.00;;;;;;5044709;28;87042;-39
2022/11/18 06:00:28;;;;;;;;;;;10.00;71.80;;;;;;5044938;28;87265;-39
2022/11/18 06:02:54;;;;;;;;;;;9.90;71.80;;;;;;5044556;28;88203;-39
2022/11/18 06:05:21;;;;;;;;;;;9.90;71.70;;;;;;5044924;28;87193;-39
2022/11/18 06:07:46;;;;;;;;;;;9.90;71.70;;;;;;5045247;27;87404;-40
2022/11/18 06:10:16;;;;;;;;;;;9.90;71.90;;;;;;5044557;28;88194;-39
2022/11/18 06:12:44;;;;;;;;;;;9.90;71.90;;;;;;5047388;28;87180;-39
2022/11/18 06:15:30;;;;;;;;;;;9.90;71.90;;;;;;5043593;28;88889;-39
2022/11/18 06:17:58;;;;;;;;;;;9.90;71.80;;;;;;5044200;28;87246;-39
2022/11/18 06:20:24;;;;;;;;;;;9.90;71.80;;;;;;5044503;27;88840;-39
2022/11/18 06:22:52;;;;;;;;;;;9.90;71.80;;;;;;5044369;28;87984;-39
2022/11/18 06:25:17;;;;;;;;;;;9.90;71.80;;;;;;5044377;28;87536;-39
2022/11/18 06:27:44;;;;;;;;;;;9.80;71.80;;;;;;5044616;28;87399;-39
2022/11/18 06:30:10;;;;;;;;;;;9.90;71.70;;;;;;5044140;28;87306;-39
2022/11/18 06:32:35;;;;;;;;;;;9.90;71.70;;;;;;5044582;28;86365;-39
2022/11/18 06:35:01;;;;;;;;;;;9.80;71.70;;;;;;5047107;28;86981;-39
2022/11/18 06:37:26;;;;;;;;;;;9.80;71.70;;;;;;5044518;28;87166;-39
2022/11/18 06:39:52;;;;;;;;;;;9.80;71.70;;;;;;5043826;28;87928;-39
2022/11/18 06:45:06;;;;;;;;;;;9.80;71.80;;;;;;5041749;28;87214;-39
2022/11/18 06:47:31;;;;;;;;;;;9.80;71.70;;;;;;5044329;28;87339;-39
2022/11/18 06:49:57;;;;;;;;;;;9.80;71.70;;;;;;5044025;28;88040;-39
2022/11/18 06:52:23;;;;;;;;;;;9.80;71.70;;;;;;5043894;28;87408;-39
2022/11/18 06:54:48;;;;;;;;;;;9.80;71.70;;;;;;5044365;28;87366;-39
2022/11/18 06:57:14;;;;;;;;;;;9.80;71.70;;;;;;5047166;28;87360;-39
2022/11/18 06:59:40;;;;;;;;;;;9.80;71.60;;;;;;5044158;28;86928;-39
2022/11/18 07:02:05;;;;;;;;;;;9.80;71.60;;;;;;5043858;28;88202;-39
2022/11/18 07:04:33;;;;;;;;;;;9.80;71.60;;;;;;5043396;28;88033;-39
2022/11/18 07:06:59;;;;;;;;;;;9.80;71.70;;;;;;5043422;27;89586;-39
2022/11/18 07:09:24;;;;;;;;;;;9.80;71.70;;;;;;5043551;28;87970;-40
2022/11/18 07:11:50;;;;;;;;;;;9.80;71.60;;;;;;5043993;28;87266;-39
2022/11/18 07:14:15;;;;;;;;;;;9.80;71.50;;;;;;5043730;28;87514;-40
2022/11/18 07:16:41;;;;;;;;;;;9.80;71.60;;;;;;5043490;28;88115;-39
2022/11/18 07:19:07;;;;;;;;;;;9.80;71.70;;;;;;5046814;28;87278;-39
2022/11/18 07:21:32;;;;;;;;;;;9.70;71.70;;;;;;5044155;28;87255;-39
2022/11/18 07:23:58;;;;;;;;;;;9.80;71.60;;;;;;5043575;28;87021;-39
2022/11/18 07:26:23;;;;;;;;;;;9.80;71.60;;;;;;5041874;28;87753;-39
2022/11/18 07:28:49;;;;;;;;;;;9.80;71.60;;;;;;5042715;28;88911;-39
2022/11/18 07:31:16;;;;;;;;;;;9.70;72.20;;;;;;5043493;28;87095;-39
2022/11/18 07:33:42;;;;;;;;;;;9.70;71.60;;;;;;5043527;27;87328;-39
2022/11/18 07:36:12;;;;;;;;;;;9.70;71.70;;;;;;5043339;28;87502;-39
2022/11/18 07:38:37;;;;;;;;;;;9.70;71.70;;;;;;5046238;28;87087;-39
2022/11/18 07:41:07;;;;;;;;;;;9.70;71.60;;;;;;5043191;28;87981;-39
2022/11/18 07:43:33;;;;;;;;;;;9.70;71.60;;;;;;5043001;28;87135;-39
2022/11/18 07:46:07;;;;;;;;;;;9.70;71.60;;;;;;5043482;27;88633;-39
2022/11/18 07:48:32;;;;;;;;;;;9.70;71.60;;;;;;5043039;28;88535;-39
2022/11/18 07:50:59;;;;;;;;;;;9.70;71.70;;;;;;5043269;28;87597;-39
2022/11/18 07:53:25;;;;;;;;;;;9.70;71.60;;;;;;5042212;27;87991;-39
2022/11/18 07:55:50;;;;;;;;;;;9.70;71.60;;;;;;5042993;28;88053;-39
2022/11/18 07:58:16;;;;;;;;;;;9.70;71.60;;;;;;5043309;28;87102;-39
2022/11/18 08:00:41;;;;;;;;;;;9.70;71.60;;;;;;5045757;28;87734;-39
2022/11/18 08:03:07;;;;;;;;;;;9.70;71.60;;;;;;5043296;28;87117;-39
2022/11/18 08:05:32;;;;;;;;;;;9.70;71.70;;;;;;5043063;27;87386;-39
2022/11/18 08:07:58;;;;;;;;;;;9.70;71.60;;;;;;5042753;28;87912;-39
2022/11/18 08:10:23;;;;;;;;;;;9.70;71.90;;;;;;5043522;28;86452;-39
2022/11/18 08:12:49;;;;;;;;;;;9.70;72.10;;;;;;5042731;27;88971;-39
2022/11/18 08:15:14;;;;;;;;;;;9.70;71.90;;;;;;5042797;28;87957;-39
2022/11/18 08:17:40;;;;;;;;;;;9.60;72.20;;;;;;5042417;28;88068;-39
2022/11/18 08:20:05;;;;;;;;;;;9.60;72.20;;;;;;5042820;28;87474;-40
2022/11/18 08:22:31;;;;;;;;;;;9.70;72.10;;;;;;5045413;28;87766;-39
2022/11/18 08:24:56;;;;;;;;;;;9.60;72.10;;;;;;5042614;28;87048;-39
2022/11/18 08:27:22;;;;;;;;;;;9.60;72.20;;;;;;5042508;28;87996;-39
2022/11/18 08:29:47;;;;;;;;;;;9.60;72.20;;;;;;5042600;28;86946;-39
2022/11/18 08:32:13;;;;;;;;;;;9.60;72.20;;;;;;5042446;27;88708;-39
2022/11/18 08:34:38;;;;;;;;;;;9.70;72.00;;;;;;5042801;28;87276;-39
2022/11/18 08:37:04;;;;;;;;;;;9.70;71.80;;;;;;5042351;28;87111;-39
2022/11/18 08:39:29;;;;;;;;;;;9.70;71.80;;;;;;5042771;28;87323;-39
2022/11/18 08:41:56;;;;;;;;;;;9.70;71.70;;;;;;5041556;28;89231;-39
2022/11/18 08:44:22;;;;;;;;;;;9.80;71.70;;;;;;5045285;28;87247;-39
2022/11/18 08:46:48;;;;;;;;;;;9.80;71.70;;;;;;5042149;28;88038;-39
2022/11/18 08:49:13;;;;;;;;;;;9.70;71.70;;;;;;5042415;28;87171;-39
2022/11/18 08:51:39;;;;;;;;;;;9.70;71.70;;;;;;5042531;28;87354;-39
2022/11/18 08:54:04;;;;;;;;;;;9.80;71.70;;;;;;5041731;28;89323;-39
2022/11/18 08:56:30;;;;;;;;;;;9.70;71.80;;;;;;5042427;28;87102;-39
2022/11/18 08:58:55;;;;;;;;;;;9.70;71.70;;;;;;5043030;28;87430;-39
2022/11/18 09:01:21;;;;;;;;;;;9.80;71.80;;;;;;5042047;28;88194;-39
2022/11/18 09:03:47;;;;;;;;;;;9.70;71.90;;;;;;5042240;28;87131;-39
2022/11/18 09:06:14;;;;;;;;;;;9.80;71.80;;;;;;5046498;27;88008;-39
2022/11/18 09:08:40;;;;;;;;;;;9.80;71.90;;;;;;5045930;28;87008;-39
2022/11/18 09:11:06;;;;;;;;;;;9.80;71.90;;;;;;5045803;27;87556;-39
2022/11/18 09:13:31;;;;;;;;;;;9.80;72.00;;;;;;5045264;28;88520;-39
2022/11/18 09:15:58;;;;;;;;;;;9.80;72.00;;;;;;5045859;28;87530;-39
2022/11/18 09:18:23;;;;;;;;;;;9.80;71.80;;;;;;5045648;28;87213;-39
2022/11/18 09:20:59;;;;;;;;;;;9.80;72.00;;;;;;5044924;28;88102;-39
2022/11/18 09:23:25;;;;;;;;;;;9.80;72.00;;;;;;5045802;28;86395;-39
2022/11/18 09:25:57;;;;;;;;;;;9.80;72.10;;;;;;5045476;28;86915;-39
2022/11/18 09:28:23;;;;;;;;;;;9.80;72.10;;;;;;5047814;28;89317;-39
2022/11/18 09:30:48;;;;;;;;;;;9.80;71.80;;;;;;5044899;28;87998;-39
2022/11/18 09:33:15;;;;;;;;;;;9.90;72.00;;;;;;5045069;28;87304;-39
2022/11/18 09:35:41;;;;;;;;;;;9.80;72.00;;;;;;5045287;28;87071;-39
2022/11/18 09:38:07;;;;;;;;;;;9.80;72.00;;;;;;5045427;27;87370;-39
2022/11/18 09:40:33;;;;;;;;;;;9.90;72.10;;;;;;5044891;28;88172;-39
2022/11/18 09:42:59;;;;;;;;;;;9.80;72.30;;;;;;5045234;28;87046;-39
2022/11/18 09:45:27;;;;;;;;;;;9.90;72.00;;;;;;5045010;27;87199;-39
2022/11/18 09:47:57;;;;;;;;;;;9.90;71.90;;;;;;5048236;28;87201;-39
2022/11/18 09:50:23;;;;;;;;;;;9.90;72.00;;;;;;5045386;28;86910;-39
2022/11/18 09:52:54;;;;;;;;;;;9.90;72.30;;;;;;5044728;28;88137;-39
2022/11/18 09:55:20;;;;;;;;;;;9.90;72.00;;;;;;5044388;28;87984;-39
2022/11/18 09:57:49;;;;;;;;;;;9.90;72.10;;;;;;5045082;27;88280;-39
2022/11/18 10:00:19;;;;;;;;;;;9.90;72.30;;;;;;5044713;28;88018;-39
2022/11/18 10:02:45;;;;;;;;;;;9.90;72.70;;;;;;5044716;28;87137;-39
2022/11/18 10:05:15;;;;;;;;;;;9.90;72.50;;;;;;5044972;27;87565;-39
2022/11/18 10:07:44;;;;;;;;;;;9.90;72.70;;;;;;5044597;28;88029;-39
2022/11/18 10:10:14;;;;;;;;;;;9.90;72.50;;;;;;5047367;28;87761;-39
2022/11/18 10:12:45;;;;;;;;;;;9.90;72.70;;;;;;5044774;28;87525;-39
2022/11/18 10:15:16;;;;;;;;;;;10.00;72.60;;;;;;5044655;28;87161;-39
2022/11/18 10:18:11;;;;;;;;;;;10.00;72.40;;;;;;5044744;28;87491;-39
2022/11/18 10:20:51;;;;;;;;;;;10.00;72.60;;;;;;5033338;28;89995;-39
2022/11/18 10:23:21;;;;;;;;;;;10.00;72.80;;;;;;5045041;28;86921;-39
2022/11/18 10:25:47;;;;;;;;;;;10.00;72.90;;;;;;5044301;27;87450;-39
2022/11/18 10:28:14;;;;;;;;;;;10.00;72.90;;;;;;5044365;28;88135;-39
2022/11/18 10:30:39;;;;;;;;;;;10.00;73.80;;;;;;5044578;28;87137;-39
2022/11/18 10:33:20;;;;;;;;;;;10.00;73.10;;;;;;5047174;28;87377;-39
2022/11/18 10:35:45;;;;;;;;;;;10.00;72.90;;;;;;5044552;28;87112;-39
2022/11/18 10:38:13;;;;;;;;;;;10.00;73.00;;;;;;5044848;27;87206;-39
2022/11/18 10:40:59;;;;;;;;;;;10.00;73.20;;;;;;5042569;28;91306;-38
2022/11/18 10:43:44;;;;;;;;;;;10.10;73.40;;;;;;5043743;28;87184;-39
2022/11/18 10:46:23;;;;;;;;;;;10.10;73.40;;;;;;5043404;27;89095;-39
2022/11/18 10:49:05;;;;;;;;;;;10.10;73.40;;;;;;5043720;28;88401;-39
2022/11/18 10:51:30;;;;;;;;;;;10.10;73.30;;;;;;5044419;28;87108;-39
2022/11/18 10:54:13;;;;;;;;;;;10.10;73.50;;;;;;5044272;28;87656;-39
2022/11/18 10:56:50;;;;;;;;;;;10.10;73.60;;;;;;5046334;28;90199;-38
2022/11/18 10:59:29;;;;;;;;;;;10.10;73.60;;;;;;5043950;28;86936;-39
2022/11/18 11:01:57;;;;;;;;;;;10.10;73.60;;;;;;5043485;28;89344;-39
2022/11/18 11:04:23;;;;;;;;;;;10.20;73.70;;;;;;5044603;28;86514;-39
2022/11/18 11:06:49;;;;;;;;;;;10.20;73.90;;;;;;5043938;27;88090;-39
2022/11/18 11:09:14;;;;;;;;;;;10.20;73.70;;;;;;5043538;28;87998;-39
2022/11/18 11:11:42;;;;;;;;;;;10.20;73.80;;;;;;5043073;28;88110;-38
2022/11/18 11:14:10;;;;;;;;;;;10.20;73.80;;;;;;5043577;27;89540;-39
2022/11/18 11:16:48;;;;;;;;;;;10.20;73.80;;;;;;5043505;28;87017;-38
2022/11/18 11:19:16;;;;;;;;;;;10.20;73.90;;;;;;5046447;28;87137;-38
2022/11/18 11:21:41;;;;;;;;;;;10.20;73.90;;;;;;5043395;28;88430;-39
2022/11/18 11:24:11;;;;;;;;;;;10.20;73.90;;;;;;5043799;28;87114;-39
2022/11/18 11:26:43;;;;;;;;;;;10.30;74.00;;;;;;5043109;27;88741;-39
2022/11/18 11:29:20;;;;;;;;;;;10.30;74.00;;;;;;5043043;27;88860;-39
2022/11/18 11:31:55;;;;;;;;;;;10.30;74.00;;;;;;5043670;28;87119;-39
2022/11/18 11:34:23;;;;;;;;;;;10.30;74.20;;;;;;5043736;28;87691;-38
2022/11/18 11:36:48;;;;;;;;;;;10.30;74.10;;;;;;5042402;28;88306;-39
2022/11/18 11:39:20;;;;;;;;;;;10.30;74.10;;;;;;5043413;28;87140;-39
2022/11/18 11:41:48;;;;;;;;;;;10.30;74.20;;;;;;5045919;27;87702;-38
2022/11/18 11:44:14;;;;;;;;;;;10.30;74.30;;;;;;5043187;28;87712;-38
2022/11/18 11:50:03;;;;;;;;;;;10.30;74.40;;;;;;5042874;28;87012;-38
2022/11/18 11:52:32;;;;;;;;;;;10.30;74.50;;;;;;5040773;28;87063;-39
2022/11/18 11:55:00;;;;;;;;;;;10.30;74.50;;;;;;5043731;27;87519;-39
2022/11/18 11:57:44;;;;;;;;;;;10.30;74.60;;;;;;5042869;28;87062;-39
2022/11/18 12:00:13;;;;;;;;;;;10.30;74.50;;;;;;5043125;27;87193;-39
2022/11/18 12:02:58;;;;;;;;;;;10.30;74.60;;;;;;5044945;27;87839;-38
2022/11/18 12:05:32;;;;;;;;;;;10.30;74.60;;;;;;5043238;27;87063;-38
2022/11/18 12:08:02;;;;;;;;;;;10.30;74.70;;;;;;5042798;27;87223;-38
2022/11/18 12:10:28;;;;;;;;;;;10.30;74.70;;;;;;5042341;28;89444;-39
2022/11/18 12:13:07;;;;;;;;;;;10.30;74.70;;;;;;5042825;28;87082;-39
2022/11/18 12:15:33;;;;;;;;;;;10.30;74.80;;;;;;5042747;27;88652;-39
2022/11/18 12:17:58;;;;;;;;;;;10.30;74.80;;;;;;5042607;28;88203;-39
2022/11/18 12:20:34;;;;;;;;;;;10.40;74.90;;;;;;5043584;28;86516;-39
2022/11/18 12:23:13;;;;;;;;;;;10.40;74.80;;;;;;5042811;27;86942;-39
2022/11/18 12:25:45;;;;;;;;;;;10.40;74.80;;;;;;5044736;28;89187;-39
2022/11/18 12:28:20;;;;;;;;;;;10.40;74.80;;;;;;5042150;28;87881;-39
2022/11/18 12:30:46;;;;;;;;;;;10.40;74.90;;;;;;5042557;28;88115;-39
2022/11/18 12:33:14;;;;;;;;;;;10.40;74.90;;;;;;5042562;28;87153;-39
2022/11/18 12:35:45;;;;;;;;;;;10.40;75.00;;;;;;5042394;28;87394;-39
2022/11/18 12:38:26;;;;;;;;;;;10.40;75.00;;;;;;5042294;28;88187;-39
2022/11/18 12:40:51;;;;;;;;;;;10.40;75.00;;;;;;5044536;27;86983;-39
2022/11/18 12:46:25;;;;;;;;;;;10.50;75.10;;;;;;5046231;28;86514;-38
2022/11/18 12:48:50;;;;;;;;;;;10.40;75.00;;;;;;5048959;28;87567;-39
2022/11/18 12:51:17;;;;;;;;;;;10.50;75.10;;;;;;5045715;28;88109;-39
2022/11/18 12:53:43;;;;;;;;;;;10.50;75.10;;;;;;5045142;28;88058;-39
2022/11/18 12:56:11;;;;;;;;;;;10.50;75.10;;;;;;5045825;27;88238;-39
2022/11/18 12:58:37;;;;;;;;;;;10.50;75.10;;;;;;5045537;28;88018;-38
2022/11/18 13:01:05;;;;;;;;;;;10.50;75.10;;;;;;5045809;28;87141;-39
2022/11/18 13:03:30;;;;;;;;;;;10.50;75.00;;;;;;5046007;28;87447;-39
2022/11/18 13:05:58;;;;;;;;;;;10.50;75.00;;;;;;5045687;28;88019;-39
2022/11/18 13:08:24;;;;;;;;;;;10.50;75.10;;;;;;5045676;28;87135;-39
2022/11/18 13:10:51;;;;;;;;;;;10.50;75.10;;;;;;5048917;27;87391;-38
2022/11/18 13:13:20;;;;;;;;;;;10.50;75.10;;;;;;5045323;28;87017;-39
2022/11/18 13:18:30;;;;;;;;;;;10.50;75.20;;;;;;5044816;28;88223;-39
2022/11/18 13:20:56;;;;;;;;;;;10.60;75.20;;;;;;5045875;28;87103;-39
2022/11/18 13:26:11;;;;;;;;;;;10.60;75.20;;;;;;5045317;28;87178;-39
2022/11/18 13:28:44;;;;;;;;;;;10.60;75.20;;;;;;5045513;28;87115;-38
2022/11/18 13:31:16;;;;;;;;;;;10.60;75.20;;;;;;5045638;27;87351;-39
2022/11/18 13:33:41;;;;;;;;;;;10.60;75.20;;;;;;5048103;28;88060;-38
2022/11/18 13:36:23;;;;;;;;;;;10.60;75.10;;;;;;5045706;27;89063;-39
2022/11/18 13:38:59;;;;;;;;;;;10.60;75.10;;;;;;5044875;28;87968;-39
2022/11/18 13:41:31;;;;;;;;;;;10.60;75.20;;;;;;5045208;28;87056;-39
2022/11/18 13:44:09;;;;;;;;;;;10.60;75.20;;;;;;5043996;28;88704;-39
2022/11/18 13:46:34;;;;;;;;;;;10.70;75.30;;;;;;5044773;28;88725;-39
2022/11/18 13:49:00;;;;;;;;;;;10.70;75.30;;;;;;5045310;28;87221;-38
2022/11/18 13:51:25;;;;;;;;;;;10.70;75.30;;;;;;5044836;27;87535;-39
2022/11/18 13:53:51;;;;;;;;;;;10.70;75.30;;;;;;5044837;28;88356;-39
2022/11/18 13:56:27;;;;;;;;;;;10.70;75.20;;;;;;5048107;28;87007;-39
2022/11/18 13:58:55;;;;;;;;;;;10.70;75.30;;;;;;5044545;28;87788;-39
2022/11/18 14:01:21;;;;;;;;;;;10.70;75.30;;;;;;5045076;27;86406;-39
2022/11/18 14:03:52;;;;;;;;;;;10.70;75.40;;;;;;5045051;28;87136;-39
2022/11/18 14:06:33;;;;;;;;;;;10.70;75.40;;;;;;5044566;28;88263;-39
2022/11/18 14:09:08;;;;;;;;;;;10.70;75.40;;;;;;5044404;28;88562;-39
2022/11/18 14:11:38;;;;;;;;;;;10.80;75.50;;;;;;5044395;28;88374;-38
2022/11/18 14:14:04;;;;;;;;;;;10.80;75.50;;;;;;5044241;28;88174;-39
2022/11/18 14:16:31;;;;;;;;;;;10.70;75.60;;;;;;5047959;28;87065;-39
2022/11/18 14:18:56;;;;;;;;;;;10.80;75.60;;;;;;5044348;28;89409;-39
2022/11/18 14:21:29;;;;;;;;;;;10.80;75.60;;;;;;5044718;28;87089;-39
2022/11/18 14:23:55;;;;;;;;;;;10.80;75.50;;;;;;5044657;27;87336;-39
2022/11/18 14:26:31;;;;;;;;;;;10.80;75.50;;;;;;5044563;28;87243;-39
2022/11/18 14:28:59;;;;;;;;;;;10.80;75.50;;;;;;5044527;28;87070;-39
2022/11/18 14:31:25;;;;;;;;;;;10.80;75.40;;;;;;5044352;27;89069;-38
2022/11/18 14:34:09;;;;;;;;;;;10.80;75.40;;;;;;5043271;28;90192;-39
2022/11/18 14:36:35;;;;;;;;;;;10.90;75.40;;;;;;5044231;27;87261;-39
2022/11/18 14:39:00;;;;;;;;;;;10.90;75.40;;;;;;5047237;28;87685;-39
2022/11/18 14:44:12;;;;;;;;;;;10.90;75.50;;;;;;5044100;28;86928;-39
2022/11/18 14:46:38;;;;;;;;;;;10.90;75.50;;;;;;5044047;28;87962;-39
2022/11/18 14:49:05;;;;;;;;;;;10.90;75.50;;;;;;5044212;28;87109;-39
2022/11/18 14:51:30;;;;;;;;;;;10.90;75.60;;;;;;5044902;28;87365;-39
2022/11/18 14:53:56;;;;;;;;;;;10.90;76.00;;;;;;5044005;28;88717;-39
2022/11/18 14:56:25;;;;;;;;;;;10.90;75.40;;;;;;5044111;28;87227;-39